F/V Loktudi — FGQJ — position and weather

sailwx.info

Track history (hours):
 
Tides and Currents Weather Stations Pressure Air Temp Water Temp Dewpoint Dewpoint Depression Visibility Wind Speed Wind Dir Waves Ship Positions

F/V Loktudi

Last reported at 2017-Nov-17 18:22 UTC. Time now 2017-Nov-19 18:11 UTC.
Position N 47°52' W 003°55'.

Length 16 m; draft 3 m.

Type: Fishing. MMSI: 228376000.

Date/timePositionNaut miles runAvg speedWind from/ knotsBaromVisibWave heightAir tempDewpointWater temp
2017-Nov-17 18:22N 47°52' W 003°55'16 7.2
2017-Nov-17 16:13N 47°38' W 003°46'1 3.4
2017-Nov-17 15:54N 47°37' W 003°45'1 3.4
2017-Nov-17 15:30N 47°36' W 003°43'2 3.3
2017-Nov-17 15:00N 47°35' W 003°43'2 3.3
2017-Nov-17 14:30N 47°35' W 003°40'2 3.3
2017-Nov-17 14:00N 47°34' W 003°38'2 3.5
2017-Nov-17 13:30N 47°33' W 003°36'1 2.9
2017-Nov-17 13:00N 47°32' W 003°35'2 3.4
2017-Nov-17 12:30N 47°30' W 003°33'1 2.9
2017-Nov-17 12:00N 47°29' W 003°35'1 2.2
2017-Nov-17 11:30N 47°29' W 003°33'2 3.1
2017-Nov-17 11:00N 47°31' W 003°34'2 3.3
2017-Nov-17 10:30N 47°32' W 003°35'2 3.4
2017-Nov-17 10:00N 47°32' W 003°38'1 1.4
2017-Nov-17 09:30N 47°32' W 003°37'2 3.4
2017-Nov-17 09:00N 47°32' W 003°35'2 3.4
2017-Nov-17 08:30N 47°31' W 003°33'0 0.2
2017-Nov-17 08:00N 47°31' W 003°33'2 3.5
2017-Nov-17 07:30N 47°32' W 003°31'1 2.9
2017-Nov-17 07:00N 47°34' W 003°33'2 3.3
2017-Nov-17 06:30N 47°35' W 003°35'1 2.6
2017-Nov-17 06:00N 47°36' W 003°36'0 0.1
2017-Nov-17 05:30N 47°36' W 003°36'4 7.1
2017-Nov-17 05:00N 47°38' W 003°40'4 7.8
2017-Nov-17 04:30N 47°40' W 003°44'4 7.8
2017-Nov-17 04:00N 47°43' W 003°49'4 7.9
2017-Nov-17 03:29N 47°46' W 003°53'4 7.9
2017-Nov-17 03:00N 47°49' W 003°56'3 1.8
2017-Nov-17 01:22N 47°52' W 003°55'4 9.0
2017-Nov-17 00:57N 47°49' W 003°58'4 9.2
2017-Nov-17 00:29N 47°45' W 004°02'5 9.3
2017-Nov-16 23:56N 47°43' W 004°09'4 9.0
2017-Nov-16 23:30N 47°41' W 004°14'4 9.0
2017-Nov-16 23:00N 47°38' W 004°19'5 8.7
2017-Nov-16 22:24N 47°35' W 004°26'17 2.9
2017-Nov-16 16:30N 47°22' W 004°41'2 3.7
2017-Nov-16 15:56N 47°21' W 004°44'1 2.1
2017-Nov-16 15:26N 47°21' W 004°46'1 2.8
2017-Nov-16 14:55N 47°20' W 004°47'1 2.9
2017-Nov-16 14:30N 47°20' W 004°45'2 3.3
2017-Nov-16 14:00N 47°22' W 004°44'2 3.2
2017-Nov-16 13:25N 47°23' W 004°42'1 3.2
2017-Nov-16 12:58N 47°24' W 004°41'1 1.9
2017-Nov-16 12:15N 47°23' W 004°41'1 3.3
2017-Nov-16 11:52N 47°22' W 004°43'2 3.9
2017-Nov-16 11:26N 47°22' W 004°45'1 2.3
2017-Nov-16 10:55N 47°22' W 004°47'2 3.2
2017-Nov-16 10:20N 47°22' W 004°50'1 3.5
2017-Nov-16 10:00N 47°21' W 004°51'3 3.4
2017-Nov-16 09:15N 47°19' W 004°54'6 3.0
2017-Nov-16 07:25N 47°14' W 004°49'4 2.7
2017-Nov-16 05:48N 47°10' W 004°50'2 3.2
2017-Nov-16 05:11N 47°10' W 004°47'1 3.6
2017-Nov-16 05:00N 47°10' W 004°47'2 3.7
2017-Nov-16 04:29N 47°12' W 004°45'2 3.6
2017-Nov-16 04:00N 47°14' W 004°45'2 2.7
2017-Nov-16 03:24N 47°15' W 004°46'1 3.0
2017-Nov-16 02:57N 47°15' W 004°48'3 2.8
2017-Nov-16 01:50N 47°12' W 004°51'3 2.8
2017-Nov-16 00:44N 47°10' W 004°49'1 3.0
2017-Nov-16 00:16N 47°10' W 004°47'1 2.9
2017-Nov-16 00:00N 47°11' W 004°46'2 2.9
2017-Nov-15 23:24N 47°12' W 004°45'1 2.9
2017-Nov-15 22:56N 47°14' W 004°45'1 2.7
2017-Nov-15 22:30N 47°15' W 004°45'2 3.0
2017-Nov-15 21:56N 47°15' W 004°48'2 3.6
2017-Nov-15 21:28N 47°14' W 004°50'13 2.4
2017-Nov-15 15:46N 47°02' W 004°57'9 3.4
2017-Nov-15 13:15N 47°09' W 004°50'1 3.3
2017-Nov-15 12:56N 47°10' W 004°49'5 3.0
2017-Nov-15 11:19N 47°13' W 004°45'3 2.7
2017-Nov-15 10:16N 47°16' W 004°44'7 3.0
2017-Nov-15 07:52N 47°22' W 004°37'1 3.2
2017-Nov-15 07:29N 47°23' W 004°37'11 7.9
2017-Nov-15 06:06N 47°31' W 004°25'4 9.3
2017-Nov-15 05:38N 47°34' W 004°21'1 9.3
2017-Nov-15 05:30N 47°34' W 004°19'5 9.1
2017-Nov-15 05:00N 47°38' W 004°15'5 9.1
2017-Nov-15 04:30N 47°41' W 004°10'6 9.1
2017-Nov-15 03:47N 47°45' W 004°03'3 9.1
2017-Nov-15 03:30N 47°47' W 003°60'5 9.2
2017-Nov-15 03:00N 47°51' W 003°56'1 0.7
2017-Nov-15 01:25N 47°52' W 003°55'4 8.8
2017-Nov-15 00:59N 47°49' W 003°58'4 9.0
2017-Nov-15 00:30N 47°45' W 004°03'5 9.0
2017-Nov-14 23:56N 47°42' W 004°08'5 8.8
2017-Nov-14 23:25N 47°39' W 004°13'4 9.1
2017-Nov-14 22:59N 47°36' W 004°18'7 9.1
2017-Nov-14 22:14N 47°32' W 004°26'19 3.9
2017-Nov-14 17:28N 47°17' W 004°43'13 0.9
2017-Nov-14 02:44N 47°07' W 004°52'  
2017-Nov-10 16:52N 47°50' W 004°10'1 0.8
2017-Nov-10 15:33N 47°50' W 004°09'0 8.3
2017-Nov-10 15:31N 47°50' W 004°09'11 7.9
2017-Nov-10 14:06N 47°39' W 004°10'9 1.1
2017-Nov-10 06:07N 47°33' W 003°60'1 6.9
2017-Nov-10 05:56N 47°34' W 003°59'4 6.9
2017-Nov-10 05:24N 47°37' W 003°56'3 7.1
2017-Nov-10 04:58N 47°40' W 003°54'5 7.2
2017-Nov-10 04:20N 47°44' W 003°55'3 7.3
2017-Nov-10 03:58N 47°47' W 003°55'5 2.4
2017-Nov-10 02:00N 47°52' W 003°55'10 9.0
2017-Nov-10 00:50N 47°41' W 003°55'15 0.4
2017-Nov-08 11:47N 47°35' W 004°16'1 3.3
2017-Nov-08 11:29N 47°36' W 004°17'2 3.3
2017-Nov-08 11:01N 47°37' W 004°18'2 3.3
2017-Nov-08 10:29N 47°37' W 004°21'1 1.6
2017-Nov-08 09:40N 47°36' W 004°21'0 2.1
2017-Nov-08 09:30N 47°36' W 004°21'2 3.1
2017-Nov-08 08:50N 47°37' W 004°24'21 3.6
2017-Nov-08 03:00N 47°48' W 003°58'4 2.8
2017-Nov-08 01:43N 47°51' W 003°56'12 8.1
2017-Nov-08 00:16N 47°40' W 003°52'0 1.6
2017-Nov-07 23:58N 47°40' W 003°52'1 2.2
2017-Nov-07 23:26N 47°39' W 003°53'1 0.2
2017-Nov-07 19:28N 47°40' W 003°53'  
Track history (hours):
 
Tides and Currents Weather Stations Pressure Air Temp Water Temp Dewpoint Dewpoint Depression Visibility Wind Speed Wind Dir Waves Ship Positions

F/V Loktudi

Last reported at 2017-Nov-17 18:22 UTC. Time now 2017-Nov-19 18:11 UTC.
Position N 47°52' W 003°55'.

Length 16 m; draft 3 m.

Type: Fishing. MMSI: 228376000.

Date/timePositionNaut miles runAvg speedWind from/ knotsBaromVisibWave heightAir tempDewpointWater temp
2017-Nov-17 18:22N 47°52' W 003°55'16 7.2
2017-Nov-17 16:13N 47°38' W 003°46'1 3.4
2017-Nov-17 15:54N 47°37' W 003°45'1 3.4
2017-Nov-17 15:30N 47°36' W 003°43'2 3.3
2017-Nov-17 15:00N 47°35' W 003°43'2 3.3
2017-Nov-17 14:30N 47°35' W 003°40'2 3.3
2017-Nov-17 14:00N 47°34' W 003°38'2 3.5
2017-Nov-17 13:30N 47°33' W 003°36'1 2.9
2017-Nov-17 13:00N 47°32' W 003°35'2 3.4
2017-Nov-17 12:30N 47°30' W 003°33'1 2.9
2017-Nov-17 12:00N 47°29' W 003°35'1 2.2
2017-Nov-17 11:30N 47°29' W 003°33'2 3.1
2017-Nov-17 11:00N 47°31' W 003°34'2 3.3
2017-Nov-17 10:30N 47°32' W 003°35'2 3.4
2017-Nov-17 10:00N 47°32' W 003°38'1 1.4
2017-Nov-17 09:30N 47°32' W 003°37'2 3.4
2017-Nov-17 09:00N 47°32' W 003°35'2 3.4
2017-Nov-17 08:30N 47°31' W 003°33'0 0.2
2017-Nov-17 08:00N 47°31' W 003°33'2 3.5
2017-Nov-17 07:30N 47°32' W 003°31'1 2.9
2017-Nov-17 07:00N 47°34' W 003°33'2 3.3
2017-Nov-17 06:30N 47°35' W 003°35'1 2.6
2017-Nov-17 06:00N 47°36' W 003°36'0 0.1
2017-Nov-17 05:30N 47°36' W 003°36'4 7.1
2017-Nov-17 05:00N 47°38' W 003°40'4 7.8
2017-Nov-17 04:30N 47°40' W 003°44'4 7.8
2017-Nov-17 04:00N 47°43' W 003°49'4 7.9
2017-Nov-17 03:29N 47°46' W 003°53'4 7.9
2017-Nov-17 03:00N 47°49' W 003°56'3 1.8
2017-Nov-17 01:22N 47°52' W 003°55'4 9.0
2017-Nov-17 00:57N 47°49' W 003°58'4 9.2
2017-Nov-17 00:29N 47°45' W 004°02'5 9.3
2017-Nov-16 23:56N 47°43' W 004°09'4 9.0
2017-Nov-16 23:30N 47°41' W 004°14'4 9.0
2017-Nov-16 23:00N 47°38' W 004°19'5 8.7
2017-Nov-16 22:24N 47°35' W 004°26'17 2.9
2017-Nov-16 16:30N 47°22' W 004°41'2 3.7
2017-Nov-16 15:56N 47°21' W 004°44'1 2.1
2017-Nov-16 15:26N 47°21' W 004°46'1 2.8
2017-Nov-16 14:55N 47°20' W 004°47'1 2.9
2017-Nov-16 14:30N 47°20' W 004°45'2 3.3
2017-Nov-16 14:00N 47°22' W 004°44'2 3.2
2017-Nov-16 13:25N 47°23' W 004°42'1 3.2
2017-Nov-16 12:58N 47°24' W 004°41'1 1.9
2017-Nov-16 12:15N 47°23' W 004°41'1 3.3
2017-Nov-16 11:52N 47°22' W 004°43'2 3.9
2017-Nov-16 11:26N 47°22' W 004°45'1 2.3
2017-Nov-16 10:55N 47°22' W 004°47'2 3.2
2017-Nov-16 10:20N 47°22' W 004°50'1 3.5
2017-Nov-16 10:00N 47°21' W 004°51'3 3.4
2017-Nov-16 09:15N 47°19' W 004°54'6 3.0
2017-Nov-16 07:25N 47°14' W 004°49'4 2.7
2017-Nov-16 05:48N 47°10' W 004°50'2 3.2
2017-Nov-16 05:11N 47°10' W 004°47'1 3.6
2017-Nov-16 05:00N 47°10' W 004°47'2 3.7
2017-Nov-16 04:29N 47°12' W 004°45'2 3.6
2017-Nov-16 04:00N 47°14' W 004°45'2 2.7
2017-Nov-16 03:24N 47°15' W 004°46'1 3.0
2017-Nov-16 02:57N 47°15' W 004°48'3 2.8
2017-Nov-16 01:50N 47°12' W 004°51'3 2.8
2017-Nov-16 00:44N 47°10' W 004°49'1 3.0
2017-Nov-16 00:16N 47°10' W 004°47'1 2.9
2017-Nov-16 00:00N 47°11' W 004°46'2 2.9
2017-Nov-15 23:24N 47°12' W 004°45'1 2.9
2017-Nov-15 22:56N 47°14' W 004°45'1 2.7
2017-Nov-15 22:30N 47°15' W 004°45'2 3.0
2017-Nov-15 21:56N 47°15' W 004°48'2 3.6
2017-Nov-15 21:28N 47°14' W 004°50'13 2.4
2017-Nov-15 15:46N 47°02' W 004°57'9 3.4
2017-Nov-15 13:15N 47°09' W 004°50'1 3.3
2017-Nov-15 12:56N 47°10' W 004°49'5 3.0
2017-Nov-15 11:19N 47°13' W 004°45'3 2.7
2017-Nov-15 10:16N 47°16' W 004°44'7 3.0
2017-Nov-15 07:52N 47°22' W 004°37'1 3.2
2017-Nov-15 07:29N 47°23' W 004°37'11 7.9
2017-Nov-15 06:06N 47°31' W 004°25'4 9.3
2017-Nov-15 05:38N 47°34' W 004°21'1 9.3
2017-Nov-15 05:30N 47°34' W 004°19'5 9.1
2017-Nov-15 05:00N 47°38' W 004°15'5 9.1
2017-Nov-15 04:30N 47°41' W 004°10'6 9.1
2017-Nov-15 03:47N 47°45' W 004°03'3 9.1
2017-Nov-15 03:30N 47°47' W 003°60'5 9.2
2017-Nov-15 03:00N 47°51' W 003°56'1 0.7
2017-Nov-15 01:25N 47°52' W 003°55'4 8.8
2017-Nov-15 00:59N 47°49' W 003°58'4 9.0
2017-Nov-15 00:30N 47°45' W 004°03'5 9.0
2017-Nov-14 23:56N 47°42' W 004°08'5 8.8
2017-Nov-14 23:25N 47°39' W 004°13'4 9.1
2017-Nov-14 22:59N 47°36' W 004°18'7 9.1
2017-Nov-14 22:14N 47°32' W 004°26'19 3.9
2017-Nov-14 17:28N 47°17' W 004°43'13 0.9
2017-Nov-14 02:44N 47°07' W 004°52'  
2017-Nov-10 16:52N 47°50' W 004°10'1 0.8
2017-Nov-10 15:33N 47°50' W 004°09'0 8.3
2017-Nov-10 15:31N 47°50' W 004°09'11 7.9
2017-Nov-10 14:06N 47°39' W 004°10'9 1.1
2017-Nov-10 06:07N 47°33' W 003°60'1 6.9
2017-Nov-10 05:56N 47°34' W 003°59'4 6.9
2017-Nov-10 05:24N 47°37' W 003°56'3 7.1
2017-Nov-10 04:58N 47°40' W 003°54'5 7.2
2017-Nov-10 04:20N 47°44' W 003°55'3 7.3
2017-Nov-10 03:58N 47°47' W 003°55'5 2.4
2017-Nov-10 02:00N 47°52' W 003°55'10 9.0
2017-Nov-10 00:50N 47°41' W 003°55'15 0.4
2017-Nov-08 11:47N 47°35' W 004°16'1 3.3
2017-Nov-08 11:29N 47°36' W 004°17'2 3.3
2017-Nov-08 11:01N 47°37' W 004°18'2 3.3
2017-Nov-08 10:29N 47°37' W 004°21'1 1.6
2017-Nov-08 09:40N 47°36' W 004°21'0 2.1
2017-Nov-08 09:30N 47°36' W 004°21'2 3.1
2017-Nov-08 08:50N 47°37' W 004°24'21 3.6
2017-Nov-08 03:00N 47°48' W 003°58'4 2.8
2017-Nov-08 01:43N 47°51' W 003°56'12 8.1
2017-Nov-08 00:16N 47°40' W 003°52'0 1.6
2017-Nov-07 23:58N 47°40' W 003°52'1 2.2
2017-Nov-07 23:26N 47°39' W 003°53'1 0.2
2017-Nov-07 19:28N 47°40' W 003°53'  

Dump ship's entire track history